Terminal Aerodrome Forecast
Issued by NWS

Home | Current Version | Previous Version | Text Only | Print | Product List | Glossary On
Versions: 1 2 3 4 5 6 7 8 9 10 11
000
FTUS43 KPAH 091720
TAFCGI
TAF
KCGI 091720Z 0918/1018 32013G23KT P6SM BKN035
     FM092100 32013G23KT P6SM SCT035
     FM100000 29005KT P6SM SKC
     FM101400 22010G16KT P6SM SKC=

USA.gov is the U.S. government's official web portal to all federal, state and local government web resources and services.